sensor_id;sensor_type;location;lat;lon;timestamp;pressure;altitude;pressure_sealevel;temperature;humidity
10852;BME280;5479;52.046;6.314;2023-02-02T00:01:39;101937.34;;;5.38;100.00
10852;BME280;5479;52.046;6.314;2023-02-02T00:04:08;101941.81;;;5.35;100.00
10852;BME280;5479;52.046;6.314;2023-02-02T00:06:39;101949.78;;;5.30;100.00
10852;BME280;5479;52.046;6.314;2023-02-02T00:09:08;101951.31;;;5.40;100.00
10852;BME280;5479;52.046;6.314;2023-02-02T00:11:36;101945.84;;;5.51;100.00
10852;BME280;5479;52.046;6.314;2023-02-02T00:14:05;101943.31;;;5.48;100.00
10852;BME280;5479;52.046;6.314;2023-02-02T00:16:40;101940.47;;;5.57;100.00
10852;BME280;5479;52.046;6.314;2023-02-02T00:19:11;101945.66;;;5.62;100.00
10852;BME280;5479;52.046;6.314;2023-02-02T00:21:39;101946.28;;;5.73;100.00
10852;BME280;5479;52.046;6.314;2023-02-02T00:24:08;101948.56;;;5.91;100.00
10852;BME280;5479;52.046;6.314;2023-02-02T00:26:37;101941.50;;;5.93;100.00
10852;BME280;5479;52.046;6.314;2023-02-02T00:29:06;101942.22;;;5.99;100.00
10852;BME280;5479;52.046;6.314;2023-02-02T00:31:36;101936.81;;;6.07;100.00
10852;BME280;5479;52.046;6.314;2023-02-02T00:34:04;101943.47;;;6.22;100.00
10852;BME280;5479;52.046;6.314;2023-02-02T00:36:32;101931.13;;;6.25;100.00
10852;BME280;5479;52.046;6.314;2023-02-02T00:39:00;101932.75;;;6.31;100.00
10852;BME280;5479;52.046;6.314;2023-02-02T00:41:28;101936.44;;;6.22;100.00
10852;BME280;5479;52.046;6.314;2023-02-02T00:43:56;101933.00;;;6.20;100.00
10852;BME280;5479;52.046;6.314;2023-02-02T00:46:43;101939.34;;;6.10;100.00
10852;BME280;5479;52.046;6.314;2023-02-02T00:49:11;101933.44;;;6.00;100.00
10852;BME280;5479;52.046;6.314;2023-02-02T00:51:39;101942.09;;;6.05;100.00
10852;BME280;5479;52.046;6.314;2023-02-02T00:54:07;101947.41;;;6.02;100.00
10852;BME280;5479;52.046;6.314;2023-02-02T00:56:35;101954.28;;;6.10;100.00
10852;BME280;5479;52.046;6.314;2023-02-02T00:59:03;101949.03;;;6.08;100.00
10852;BME280;5479;52.046;6.314;2023-02-02T01:01:30;101952.34;;;6.16;100.00
10852;BME280;5479;52.046;6.314;2023-02-02T01:04:00;101956.00;;;6.11;100.00
10852;BME280;5479;52.046;6.314;2023-02-02T01:06:28;101946.22;;;6.17;100.00
10852;BME280;5479;52.046;6.314;2023-02-02T01:08:56;101948.84;;;6.17;100.00
10852;BME280;5479;52.046;6.314;2023-02-02T01:11:24;101949.72;;;6.18;100.00
10852;BME280;5479;52.046;6.314;2023-02-02T01:13:52;101954.06;;;6.19;100.00
10852;BME280;5479;52.046;6.314;2023-02-02T01:16:21;101954.81;;;6.24;100.00
10852;BME280;5479;52.046;6.314;2023-02-02T01:18:50;101954.78;;;6.25;100.00
10852;BME280;5479;52.046;6.314;2023-02-02T01:21:20;101965.31;;;6.25;100.00
10852;BME280;5479;52.046;6.314;2023-02-02T01:23:48;101966.19;;;6.26;100.00
10852;BME280;5479;52.046;6.314;2023-02-02T01:26:17;101971.44;;;6.26;100.00
10852;BME280;5479;52.046;6.314;2023-02-02T01:28:45;101966.03;;;6.32;100.00
10852;BME280;5479;52.046;6.314;2023-02-02T01:31:14;101968.66;;;6.32;100.00
10852;BME280;5479;52.046;6.314;2023-02-02T01:33:44;101951.97;;;6.33;100.00
10852;BME280;5479;52.046;6.314;2023-02-02T01:36:16;101952.03;;;6.31;100.00
10852;BME280;5479;52.046;6.314;2023-02-02T01:38:46;101962.63;;;6.27;100.00
10852;BME280;5479;52.046;6.314;2023-02-02T01:41:16;101964.13;;;6.37;100.00
10852;BME280;5479;52.046;6.314;2023-02-02T01:43:53;101966.69;;;6.40;100.00
10852;BME280;5479;52.046;6.314;2023-02-02T01:46:23;101974.72;;;6.35;100.00
10852;BME280;5479;52.046;6.314;2023-02-02T01:48:56;101978.09;;;6.42;100.00
10852;BME280;5479;52.046;6.314;2023-02-02T01:51:29;101967.66;;;6.37;100.00
10852;BME280;5479;52.046;6.314;2023-02-02T01:54:01;101963.25;;;6.39;100.00
10852;BME280;5479;52.046;6.314;2023-02-02T01:56:32;101960.63;;;6.38;100.00
10852;BME280;5479;52.046;6.314;2023-02-02T01:59:02;101965.75;;;6.44;100.00
10852;BME280;5479;52.046;6.314;2023-02-02T02:01:31;101969.28;;;6.43;100.00
10852;BME280;5479;52.046;6.314;2023-02-02T02:03:59;101963.25;;;6.39;100.00
10852;BME280;5479;52.046;6.314;2023-02-02T02:06:27;101961.44;;;6.41;100.00
10852;BME280;5479;52.046;6.314;2023-02-02T02:08:57;101964.69;;;6.51;100.00
10852;BME280;5479;52.046;6.314;2023-02-02T02:11:28;101967.31;;;6.51;100.00
10852;BME280;5479;52.046;6.314;2023-02-02T02:13:59;101959.28;;;6.57;100.00
10852;BME280;5479;52.046;6.314;2023-02-02T02:16:57;101965.59;;;6.50;100.00
10852;BME280;5479;52.046;6.314;2023-02-02T02:19:58;101955.84;;;6.55;100.00
10852;BME280;5479;52.046;6.314;2023-02-02T02:23:01;101961.03;;;6.56;100.00
10852;BME280;5479;52.046;6.314;2023-02-02T02:26:06;101954.03;;;6.55;100.00
10852;BME280;5479;52.046;6.314;2023-02-02T02:29:12;101956.59;;;6.60;100.00
10852;BME280;5479;52.046;6.314;2023-02-02T02:31:58;101951.38;;;6.57;100.00
10852;BME280;5479;52.046;6.314;2023-02-02T02:34:37;101945.25;;;6.58;100.00
10852;BME280;5479;52.046;6.314;2023-02-02T02:37:10;101955.59;;;6.64;100.00
10852;BME280;5479;52.046;6.314;2023-02-02T02:39:44;101947.75;;;6.61;100.00
10852;BME280;5479;52.046;6.314;2023-02-02T02:42:17;101947.69;;;6.64;100.00
10852;BME280;5479;52.046;6.314;2023-02-02T02:44:48;101949.34;;;6.68;100.00
10852;BME280;5479;52.046;6.314;2023-02-02T02:47:18;101952.06;;;6.65;100.00
10852;BME280;5479;52.046;6.314;2023-02-02T02:49:47;101952.88;;;6.68;100.00
10852;BME280;5479;52.046;6.314;2023-02-02T02:52:15;101944.91;;;6.70;100.00
10852;BME280;5479;52.046;6.314;2023-02-02T02:54:47;101954.69;;;6.65;100.00
10852;BME280;5479;52.046;6.314;2023-02-02T02:57:35;101952.97;;;6.64;100.00
10852;BME280;5479;52.046;6.314;2023-02-02T03:00:15;101948.63;;;6.61;100.00
10852;BME280;5479;52.046;6.314;2023-02-02T03:02:50;101945.97;;;6.63;100.00
10852;BME280;5479;52.046;6.314;2023-02-02T03:05:31;101943.34;;;6.63;100.00
10852;BME280;5479;52.046;6.314;2023-02-02T03:08:05;101940.78;;;6.60;100.00
10852;BME280;5479;52.046;6.314;2023-02-02T03:10:35;101942.59;;;6.58;100.00
10852;BME280;5479;52.046;6.314;2023-02-02T03:13:06;101942.69;;;6.55;100.00
10852;BME280;5479;52.046;6.314;2023-02-02T03:15:35;101962.75;;;6.59;100.00
10852;BME280;5479;52.046;6.314;2023-02-02T03:18:04;101952.47;;;6.48;100.00
10852;BME280;5479;52.046;6.314;2023-02-02T03:20:33;101960.25;;;6.53;100.00
10852;BME280;5479;52.046;6.314;2023-02-02T03:23:01;101954.16;;;6.51;100.00
10852;BME280;5479;52.046;6.314;2023-02-02T03:25:29;101964.56;;;6.55;100.00
10852;BME280;5479;52.046;6.314;2023-02-02T03:27:57;101962.88;;;6.53;100.00
10852;BME280;5479;52.046;6.314;2023-02-02T03:30:26;101964.63;;;6.54;100.00
10852;BME280;5479;52.046;6.314;2023-02-02T03:32:54;101971.63;;;6.55;100.00
10852;BME280;5479;52.046;6.314;2023-02-02T03:35:23;101967.25;;;6.54;100.00
10852;BME280;5479;52.046;6.314;2023-02-02T03:37:52;101976.84;;;6.56;100.00
10852;BME280;5479;52.046;6.314;2023-02-02T03:40:20;101967.31;;;6.52;100.00
10852;BME280;5479;52.046;6.314;2023-02-02T03:42:47;101974.19;;;6.58;100.00
10852;BME280;5479;52.046;6.314;2023-02-02T03:45:16;101968.06;;;6.57;100.00
10852;BME280;5479;52.046;6.314;2023-02-02T03:47:44;101965.19;;;6.66;100.00
10852;BME280;5479;52.046;6.314;2023-02-02T03:50:12;101964.41;;;6.63;100.00
10852;BME280;5479;52.046;6.314;2023-02-02T03:52:41;101960.66;;;6.72;100.00
10852;BME280;5479;52.046;6.314;2023-02-02T03:55:09;101950.19;;;6.70;100.00
10852;BME280;5479;52.046;6.314;2023-02-02T03:57:37;101953.94;;;6.60;100.00
10852;BME280;5479;52.046;6.314;2023-02-02T04:00:06;101967.09;;;6.60;100.00
10852;BME280;5479;52.046;6.314;2023-02-02T04:02:34;101960.91;;;6.61;100.00
10852;BME280;5479;52.046;6.314;2023-02-02T04:05:02;101956.59;;;6.58;100.00
10852;BME280;5479;52.046;6.314;2023-02-02T04:07:29;101959.22;;;6.60;100.00
10852;BME280;5479;52.046;6.314;2023-02-02T04:09:59;101951.06;;;6.69;100.00
10852;BME280;5479;52.046;6.314;2023-02-02T04:12:27;101954.47;;;6.74;100.00
10852;BME280;5479;52.046;6.314;2023-02-02T04:14:54;101946.59;;;6.74;100.00
10852;BME280;5479;52.046;6.314;2023-02-02T04:17:22;101945.72;;;6.72;100.00
10852;BME280;5479;52.046;6.314;2023-02-02T04:19:50;101935.94;;;6.79;100.00
10852;BME280;5479;52.046;6.314;2023-02-02T04:22:24;101941.97;;;6.82;100.00
10852;BME280;5479;52.046;6.314;2023-02-02T04:24:52;101939.31;;;6.82;100.00
10852;BME280;5479;52.046;6.314;2023-02-02T04:27:21;101943.81;;;6.79;100.00
10852;BME280;5479;52.046;6.314;2023-02-02T04:29:49;101937.53;;;6.84;100.00
10852;BME280;5479;52.046;6.314;2023-02-02T04:32:18;101934.84;;;6.86;100.00
10852;BME280;5479;52.046;6.314;2023-02-02T04:34:45;101939.16;;;6.88;100.00
10852;BME280;5479;52.046;6.314;2023-02-02T04:37:13;101946.13;;;6.91;100.00
10852;BME280;5479;52.046;6.314;2023-02-02T04:39:42;101941.81;;;6.88;100.00
10852;BME280;5479;52.046;6.314;2023-02-02T04:42:10;101952.25;;;6.91;100.00
10852;BME280;5479;52.046;6.314;2023-02-02T04:44:39;101948.81;;;6.89;100.00
10852;BME280;5479;52.046;6.314;2023-02-02T04:47:07;101953.34;;;6.84;100.00
10852;BME280;5479;52.046;6.314;2023-02-02T04:49:35;101950.50;;;6.92;100.00
10852;BME280;5479;52.046;6.314;2023-02-02T04:52:03;101955.63;;;6.96;100.00
10852;BME280;5479;52.046;6.314;2023-02-02T04:54:32;101943.41;;;6.95;100.00
10852;BME280;5479;52.046;6.314;2023-02-02T04:57:00;101941.50;;;7.00;100.00
10852;BME280;5479;52.046;6.314;2023-02-02T04:59:28;101951.13;;;7.01;100.00
10852;BME280;5479;52.046;6.314;2023-02-02T05:01:59;101944.09;;;7.02;100.00
10852;BME280;5479;52.046;6.314;2023-02-02T05:04:27;101947.59;;;7.02;100.00
10852;BME280;5479;52.046;6.314;2023-02-02T05:06:55;101952.56;;;7.13;100.00
10852;BME280;5479;52.046;6.314;2023-02-02T05:09:23;101943.13;;;7.04;100.00
10852;BME280;5479;52.046;6.314;2023-02-02T05:11:51;101940.41;;;7.09;100.00
10852;BME280;5479;52.046;6.314;2023-02-02T05:14:19;101939.44;;;7.11;100.00
10852;BME280;5479;52.046;6.314;2023-02-02T05:16:47;101946.56;;;7.08;100.00
10852;BME280;5479;52.046;6.314;2023-02-02T05:19:17;101950.97;;;7.07;100.00
10852;BME280;5479;52.046;6.314;2023-02-02T05:21:45;101956.97;;;7.12;100.00
10852;BME280;5479;52.046;6.314;2023-02-02T05:24:15;101952.50;;;7.16;100.00
10852;BME280;5479;52.046;6.314;2023-02-02T05:26:43;101952.41;;;7.19;100.00
10852;BME280;5479;52.046;6.314;2023-02-02T05:29:11;101965.69;;;7.14;100.00
10852;BME280;5479;52.046;6.314;2023-02-02T05:31:39;101961.34;;;7.13;100.00
10852;BME280;5479;52.046;6.314;2023-02-02T05:34:07;101963.16;;;7.11;100.00
10852;BME280;5479;52.046;6.314;2023-02-02T05:36:41;101967.44;;;7.15;100.00
10852;BME280;5479;52.046;6.314;2023-02-02T05:39:09;101968.25;;;7.17;100.00
10852;BME280;5479;52.046;6.314;2023-02-02T05:41:37;101963.06;;;7.14;100.00
10852;BME280;5479;52.046;6.314;2023-02-02T05:44:05;101980.59;;;7.15;100.00
10852;BME280;5479;52.046;6.314;2023-02-02T05:46:33;101978.00;;;7.14;100.00
10852;BME280;5479;52.046;6.314;2023-02-02T05:49:01;101974.44;;;7.16;100.00
10852;BME280;5479;52.046;6.314;2023-02-02T05:51:33;101982.44;;;7.12;100.00
10852;BME280;5479;52.046;6.314;2023-02-02T05:54:05;101969.16;;;7.16;100.00
10852;BME280;5479;52.046;6.314;2023-02-02T05:56:33;101969.16;;;7.16;100.00
10852;BME280;5479;52.046;6.314;2023-02-02T05:59:01;101971.66;;;7.21;100.00
10852;BME280;5479;52.046;6.314;2023-02-02T06:01:32;101974.16;;;7.25;100.00
10852;BME280;5479;52.046;6.314;2023-02-02T06:04:00;101971.75;;;7.18;100.00
10852;BME280;5479;52.046;6.314;2023-02-02T06:06:28;101971.81;;;7.16;100.00
10852;BME280;5479;52.046;6.314;2023-02-02T06:08:56;101966.53;;;7.16;100.00
10852;BME280;5479;52.046;6.314;2023-02-02T06:11:26;101960.19;;;7.23;100.00
10852;BME280;5479;52.046;6.314;2023-02-02T06:13:54;101970.94;;;7.14;100.00
10852;BME280;5479;52.046;6.314;2023-02-02T06:16:22;101967.34;;;7.18;100.00
10852;BME280;5479;52.046;6.314;2023-02-02T06:18:50;101982.28;;;7.18;100.00
10852;BME280;5479;52.046;6.314;2023-02-02T06:21:19;101983.22;;;7.15;100.00
10852;BME280;5479;52.046;6.314;2023-02-02T06:23:48;101986.69;;;7.17;100.00
10852;BME280;5479;52.046;6.314;2023-02-02T06:26:17;101987.41;;;7.24;100.00
10852;BME280;5479;52.046;6.314;2023-02-02T06:28:49;101988.50;;;7.15;100.00
10852;BME280;5479;52.046;6.314;2023-02-02T06:31:18;101995.31;;;7.22;100.00
10852;BME280;5479;52.046;6.314;2023-02-02T06:33:47;101994.38;;;7.25;100.00
10852;BME280;5479;52.046;6.314;2023-02-02T06:36:19;101997.06;;;7.23;100.00
10852;BME280;5479;52.046;6.314;2023-02-02T06:38:48;102003.28;;;7.21;100.00
10852;BME280;5479;52.046;6.314;2023-02-02T06:41:16;102011.25;;;7.19;100.00
10852;BME280;5479;52.046;6.314;2023-02-02T06:43:47;102010.38;;;7.19;100.00
10852;BME280;5479;52.046;6.314;2023-02-02T06:46:15;102010.16;;;7.26;100.00
10852;BME280;5479;52.046;6.314;2023-02-02T06:48:43;102016.31;;;7.25;100.00
10852;BME280;5479;52.046;6.314;2023-02-02T06:51:12;102005.78;;;7.25;100.00
10852;BME280;5479;52.046;6.314;2023-02-02T06:53:40;102008.31;;;7.30;100.00
10852;BME280;5479;52.046;6.314;2023-02-02T06:56:11;102018.81;;;7.32;100.00
10852;BME280;5479;52.046;6.314;2023-02-02T06:58:39;102024.06;;;7.32;100.00
10852;BME280;5479;52.046;6.314;2023-02-02T07:01:10;102028.69;;;7.23;100.00
10852;BME280;5479;52.046;6.314;2023-02-02T07:03:39;102028.69;;;7.23;100.00
10852;BME280;5479;52.046;6.314;2023-02-02T07:06:14;102023.34;;;7.26;100.00
10852;BME280;5479;52.046;6.314;2023-02-02T07:08:43;102025.16;;;7.24;100.00
10852;BME280;5479;52.046;6.314;2023-02-02T07:11:11;102031.97;;;7.32;100.00
10852;BME280;5479;52.046;6.314;2023-02-02T07:13:39;102022.47;;;7.26;100.00
10852;BME280;5479;52.046;6.314;2023-02-02T07:16:09;102025.22;;;7.21;100.00
10852;BME280;5479;52.046;6.314;2023-02-02T07:18:38;102025.16;;;7.24;100.00
10852;BME280;5479;52.046;6.314;2023-02-02T07:21:15;102029.47;;;7.27;100.00
10852;BME280;5479;52.046;6.314;2023-02-02T07:23:44;102028.75;;;7.20;100.00
10852;BME280;5479;52.046;6.314;2023-02-02T07:26:15;102028.59;;;7.26;100.00
10852;BME280;5479;52.046;6.314;2023-02-02T07:28:44;102028.69;;;7.23;100.00
10852;BME280;5479;52.046;6.314;2023-02-02T07:31:15;102031.19;;;7.28;100.00
10852;BME280;5479;52.046;6.314;2023-02-02T07:33:44;102034.75;;;7.27;100.00
10852;BME280;5479;52.046;6.314;2023-02-02T07:36:14;102032.84;;;7.32;100.00
10852;BME280;5479;52.046;6.314;2023-02-02T07:38:43;102039.97;;;7.28;100.00
10852;BME280;5479;52.046;6.314;2023-02-02T07:41:12;102050.56;;;7.27;100.00
10852;BME280;5479;52.046;6.314;2023-02-02T07:43:40;102048.69;;;7.30;100.00
10852;BME280;5479;52.046;6.314;2023-02-02T07:46:09;102055.53;;;7.38;100.00
10852;BME280;5479;52.046;6.314;2023-02-02T07:48:39;102054.88;;;7.29;100.00
10852;BME280;5479;52.046;6.314;2023-02-02T07:51:10;102053.06;;;7.32;100.00
10852;BME280;5479;52.046;6.314;2023-02-02T07:53:42;102061.72;;;7.37;100.00
10852;BME280;5479;52.046;6.314;2023-02-02T07:56:12;102070.53;;;7.36;100.00
10852;BME280;5479;52.046;6.314;2023-02-02T07:58:41;102059.16;;;7.34;100.00
10852;BME280;5479;52.046;6.314;2023-02-02T08:01:11;102072.59;;;7.23;100.00
10852;BME280;5479;52.046;6.314;2023-02-02T08:03:41;102076.09;;;7.23;100.00
10852;BME280;5479;52.046;6.314;2023-02-02T08:06:12;102076.72;;;7.33;100.00
10852;BME280;5479;52.046;6.314;2023-02-02T08:08:41;102089.88;;;7.35;100.00
10852;BME280;5479;52.046;6.314;2023-02-02T08:11:10;102078.53;;;7.31;100.00
10852;BME280;5479;52.046;6.314;2023-02-02T08:13:40;102076.84;;;7.30;100.00
10852;BME280;5479;52.046;6.314;2023-02-02T08:16:09;102081.09;;;7.36;100.00
10852;BME280;5479;52.046;6.314;2023-02-02T08:18:38;102072.31;;;7.34;100.00
10852;BME280;5479;52.046;6.314;2023-02-02T08:21:07;102082.94;;;7.30;100.00
10852;BME280;5479;52.046;6.314;2023-02-02T08:23:36;102095.97;;;7.37;100.00
10852;BME280;5479;52.046;6.314;2023-02-02T08:26:05;102095.91;;;7.40;100.00
10852;BME280;5479;52.046;6.314;2023-02-02T08:28:33;102095.16;;;7.35;100.00
10852;BME280;5479;52.046;6.314;2023-02-02T08:31:06;102100.34;;;7.38;100.00
10852;BME280;5479;52.046;6.314;2023-02-02T08:33:35;102102.94;;;7.39;100.00
10852;BME280;5479;52.046;6.314;2023-02-02T08:36:04;102105.44;;;7.44;100.00
10852;BME280;5479;52.046;6.314;2023-02-02T08:38:33;102106.38;;;7.43;100.00
10852;BME280;5479;52.046;6.314;2023-02-02T08:41:07;102106.09;;;7.53;100.00
10852;BME280;5479;52.046;6.314;2023-02-02T08:43:35;102114.06;;;7.50;100.00
10852;BME280;5479;52.046;6.314;2023-02-02T08:46:04;102115.84;;;7.50;100.00
10852;BME280;5479;52.046;6.314;2023-02-02T08:48:32;102117.44;;;7.57;100.00
10852;BME280;5479;52.046;6.314;2023-02-02T08:51:01;102129.75;;;7.55;100.00
10852;BME280;5479;52.046;6.314;2023-02-02T08:53:29;102131.56;;;7.54;100.00
10852;BME280;5479;52.046;6.314;2023-02-02T08:55:59;102133.41;;;7.51;100.00
10852;BME280;5479;52.046;6.314;2023-02-02T08:58:29;102130.91;;;7.45;100.00
10852;BME280;5479;52.046;6.314;2023-02-02T09:01:06;102131.78;;;7.44;100.00
10852;BME280;5479;52.046;6.314;2023-02-02T09:03:36;102138.00;;;7.41;100.00
10852;BME280;5479;52.046;6.314;2023-02-02T09:06:07;102140.38;;;7.52;100.00
10852;BME280;5479;52.046;6.314;2023-02-02T09:08:36;102142.13;;;7.53;100.00
10852;BME280;5479;52.046;6.314;2023-02-02T09:11:07;102140.31;;;7.55;100.00
10852;BME280;5479;52.046;6.314;2023-02-02T09:13:36;102148.22;;;7.55;100.00
10852;BME280;5479;52.046;6.314;2023-02-02T09:16:07;102153.47;;;7.56;100.00
10852;BME280;5479;52.046;6.314;2023-02-02T09:18:35;102156.19;;;7.52;100.00
10852;BME280;5479;52.046;6.314;2023-02-02T09:21:05;102159.75;;;7.51;100.00
10852;BME280;5479;52.046;6.314;2023-02-02T09:23:35;102166.59;;;7.58;100.00
10852;BME280;5479;52.046;6.314;2023-02-02T09:26:13;102172.66;;;7.61;100.00
10852;BME280;5479;52.046;6.314;2023-02-02T09:28:43;102170.03;;;7.60;100.00
10852;BME280;5479;52.046;6.314;2023-02-02T09:31:11;102184.16;;;7.59;100.00
10852;BME280;5479;52.046;6.314;2023-02-02T09:33:40;102187.69;;;7.58;100.00
10852;BME280;5479;52.046;6.314;2023-02-02T09:36:10;102187.59;;;7.61;100.00
10852;BME280;5479;52.046;6.314;2023-02-02T09:38:39;102185.09;;;7.56;100.00
10852;BME280;5479;52.046;6.314;2023-02-02T09:41:36;102193.03;;;7.55;100.00
10852;BME280;5479;52.046;6.314;2023-02-02T09:44:17;102193.97;;;7.52;100.00
10852;BME280;5479;52.046;6.314;2023-02-02T09:46:54;102198.00;;;7.67;100.00
10852;BME280;5479;52.046;6.314;2023-02-02T09:49:27;102195.38;;;7.65;100.00
10852;BME280;5479;52.046;6.314;2023-02-02T09:52:02;102206.13;;;7.59;100.00
10852;BME280;5479;52.046;6.314;2023-02-02T09:54:35;102203.34;;;7.64;100.00
10852;BME280;5479;52.046;6.314;2023-02-02T09:57:14;102206.88;;;7.64;100.00
10852;BME280;5479;52.046;6.314;2023-02-02T09:59:44;102213.91;;;7.64;100.00
10852;BME280;5479;52.046;6.314;2023-02-02T10:02:16;102221.75;;;7.65;100.00
10852;BME280;5479;52.046;6.314;2023-02-02T10:04:48;102220.81;;;7.68;100.00
10852;BME280;5479;52.046;6.314;2023-02-02T10:07:22;102226.88;;;7.71;100.00
10852;BME280;5479;52.046;6.314;2023-02-02T10:09:56;102226.00;;;7.71;100.00
10852;BME280;5479;52.046;6.314;2023-02-02T10:12:33;102231.22;;;7.74;100.00
10852;BME280;5479;52.046;6.314;2023-02-02T10:15:08;102233.84;;;7.75;100.00
10852;BME280;5479;52.046;6.314;2023-02-02T10:17:46;102232.09;;;7.74;100.00
10852;BME280;5479;52.046;6.314;2023-02-02T10:20:24;102238.25;;;7.75;100.00
10852;BME280;5479;52.046;6.314;2023-02-02T10:22:57;102236.34;;;7.80;100.00
10852;BME280;5479;52.046;6.314;2023-02-02T10:25:28;102236.41;;;7.77;100.00
10852;BME280;5479;52.046;6.314;2023-02-02T10:28:03;102243.38;;;7.81;100.00
10852;BME280;5479;52.046;6.314;2023-02-02T10:30:43;102250.50;;;7.76;100.00
10852;BME280;5479;52.046;6.314;2023-02-02T10:33:19;102239.81;;;7.82;100.00
10852;BME280;5479;52.046;6.314;2023-02-02T10:35:54;102241.41;;;7.89;100.00
10852;BME280;5479;52.046;6.314;2023-02-02T10:38:33;102241.28;;;7.92;100.00
10852;BME280;5479;52.046;6.314;2023-02-02T10:41:11;102241.22;;;7.95;100.00
10852;BME280;5479;52.046;6.314;2023-02-02T10:43:56;102255.09;;;8.03;100.00
10852;BME280;5479;52.046;6.314;2023-02-02T10:46:29;102256.22;;;7.93;100.00
10852;BME280;5479;52.046;6.314;2023-02-02T10:49:10;102251.00;;;7.92;100.00
10852;BME280;5479;52.046;6.314;2023-02-02T10:51:45;102260.84;;;7.85;100.00
10852;BME280;5479;52.046;6.314;2023-02-02T10:54:34;102260.78;;;7.86;100.00
10852;BME280;5479;52.046;6.314;2023-02-02T10:57:06;102266.09;;;7.85;100.00
10852;BME280;5479;52.046;6.314;2023-02-02T10:59:43;102259.09;;;7.84;100.00
10852;BME280;5479;52.046;6.314;2023-02-02T11:02:13;102265.88;;;7.94;100.00
10852;BME280;5479;52.046;6.314;2023-02-02T11:04:41;102265.03;;;7.92;100.00
10852;BME280;5479;52.046;6.314;2023-02-02T11:07:26;102260.63;;;7.94;100.00
10852;BME280;5479;52.046;6.314;2023-02-02T11:09:54;102263.13;;;7.99;100.00
10852;BME280;5479;52.046;6.314;2023-02-02T11:12:27;102254.47;;;7.94;100.00
10852;BME280;5479;52.046;6.314;2023-02-02T11:15:01;102251.78;;;7.95;100.00
10852;BME280;5479;52.046;6.314;2023-02-02T11:17:31;102256.75;;;8.07;100.00
10852;BME280;5479;52.046;6.314;2023-02-02T11:20:01;102253.28;;;8.05;100.00
10852;BME280;5479;52.046;6.314;2023-02-02T11:22:58;102247.03;;;8.09;100.00
10852;BME280;5479;52.046;6.314;2023-02-02T11:25:30;102248.75;;;8.10;100.00
10852;BME280;5479;52.046;6.314;2023-02-02T11:28:01;102243.34;;;8.15;100.00
10852;BME280;5479;52.046;6.314;2023-02-02T11:30:39;102236.66;;;8.35;100.00
10852;BME280;5479;52.046;6.314;2023-02-02T11:33:19;102241.13;;;8.33;100.00
10852;BME280;5479;52.046;6.314;2023-02-02T11:35:52;102237.38;;;8.42;100.00
10852;BME280;5479;52.046;6.314;2023-02-02T11:38:20;102245.41;;;8.37;100.00
10852;BME280;5479;52.046;6.314;2023-02-02T11:40:53;102245.31;;;8.40;100.00
10852;BME280;5479;52.046;6.314;2023-02-02T11:43:26;102247.97;;;8.40;100.00
10852;BME280;5479;52.046;6.314;2023-02-02T11:45:58;102256.97;;;8.33;100.00
10852;BME280;5479;52.046;6.314;2023-02-02T11:48:31;102244.84;;;8.25;100.00
10852;BME280;5479;52.046;6.314;2023-02-02T11:51:03;102244.84;;;8.25;100.00
10852;BME280;5479;52.046;6.314;2023-02-02T11:53:34;102246.66;;;8.23;100.00
10852;BME280;5479;52.046;6.314;2023-02-02T11:56:05;102248.41;;;8.24;100.00
10852;BME280;5479;52.046;6.314;2023-02-02T11:58:43;102253.59;;;8.27;100.00
10852;BME280;5479;52.046;6.314;2023-02-02T12:01:23;102252.81;;;8.23;100.00
10852;BME280;5479;52.046;6.314;2023-02-02T12:03:53;102252.72;;;8.28;100.00
10852;BME280;5479;52.046;6.314;2023-02-02T12:06:23;102259.81;;;8.24;100.00
10852;BME280;5479;52.046;6.314;2023-02-02T12:08:54;102256.28;;;8.25;100.00
10852;BME280;5479;52.046;6.314;2023-02-02T12:11:40;102256.56;;;8.13;100.00
10852;BME280;5479;52.046;6.314;2023-02-02T12:14:26;102248.63;;;8.15;100.00
10852;BME280;5479;52.046;6.314;2023-02-02T12:17:06;102260.22;;;8.09;100.00
10852;BME280;5479;52.046;6.314;2023-02-02T12:20:05;102259.25;;;8.12;100.00
10852;BME280;5479;52.046;6.314;2023-02-02T12:23:04;102260.22;;;8.09;100.00
10852;BME280;5479;52.046;6.314;2023-02-02T12:25:54;102266.22;;;8.14;100.00
10852;BME280;5479;52.046;6.314;2023-02-02T12:28:37;102262.78;;;8.11;100.00
10852;BME280;5479;52.046;6.314;2023-02-02T12:31:16;102254.72;;;8.18;100.00
10852;BME280;5479;52.046;6.314;2023-02-02T12:33:51;102257.28;;;8.20;100.00
10852;BME280;5479;52.046;6.314;2023-02-02T12:36:27;102242.91;;;8.33;100.00
10852;BME280;5479;52.046;6.314;2023-02-02T12:39:20;102242.94;;;8.31;100.00
10852;BME280;5479;52.046;6.314;2023-02-02T12:44:55;102234.19;;;8.29;100.00
10852;BME280;5479;52.046;6.314;2023-02-02T12:47:32;102233.25;;;8.32;100.00
10852;BME280;5479;52.046;6.314;2023-02-02T12:50:14;102236.50;;;8.41;100.00
10852;BME280;5479;52.046;6.314;2023-02-02T12:53:03;102236.81;;;8.29;100.00
10852;BME280;5479;52.046;6.314;2023-02-02T12:55:41;102226.34;;;8.26;100.00
10852;BME280;5479;52.046;6.314;2023-02-02T12:58:18;102229.75;;;8.31;100.00
10852;BME280;5479;52.046;6.314;2023-02-02T13:01:06;102231.38;;;8.35;100.00
10852;BME280;5479;52.046;6.314;2023-02-02T13:03:51;102234.94;;;8.34;100.00
10852;BME280;5479;52.046;6.314;2023-02-02T13:06:38;102235.03;;;8.31;100.00
10852;BME280;5479;52.046;6.314;2023-02-02T13:09:12;102233.41;;;8.24;100.00
10852;BME280;5479;52.046;6.314;2023-02-02T13:11:44;102235.03;;;8.31;100.00
10852;BME280;5479;52.046;6.314;2023-02-02T13:14:21;102240.44;;;8.25;100.00
10852;BME280;5479;52.046;6.314;2023-02-02T13:16:53;102237.06;;;8.20;100.00
10852;BME280;5479;52.046;6.314;2023-02-02T13:19:28;102252.16;;;8.14;100.00
10852;BME280;5479;52.046;6.314;2023-02-02T13:22:02;102239.63;;;8.23;100.00
10852;BME280;5479;52.046;6.314;2023-02-02T13:24:35;102243.94;;;8.26;100.00
10852;BME280;5479;52.046;6.314;2023-02-02T13:27:06;102248.34;;;8.25;100.00
10852;BME280;5479;52.046;6.314;2023-02-02T13:29:41;102245.03;;;8.17;100.00